Time;durP1;ratioP1;P1;durP2;ratioP2;P2;SDS_P1;SDS_P2;PMS_P1;PMS_P2;Temp;Humidity;BMP_temperature;BMP_pressure;BME280_temperature;BME280_humidity;BME280_pressure;Samples;Min_cycle;Max_cycle;Signal;HPM_P1;HPM_P2
2022/11/27 00:01:14;;;;;;;87.45;27.85;;;;;;;1.98;100.00;100113.19;4219392;34;20054;-70
2022/11/27 00:03:42;;;;;;;90.62;29.63;;;;;;;1.93;100.00;100094.22;4219102;34;20497;-71
2022/11/27 00:06:14;;;;;;;67.45;26.42;;;;;;;1.86;100.00;100127.78;4258466;33;20080;-70
2022/11/27 00:08:43;;;;;;;69.00;25.98;;;;;;;1.92;100.00;100125.28;4273446;33;20075;-69
2022/11/27 00:11:13;;;;;;;85.55;29.10;;;;;;;1.85;100.00;100091.59;4274527;33;20970;-71
2022/11/27 00:13:40;;;;;;;77.62;25.90;;;;;;;2.01;100.00;100118.16;4277121;33;20137;-71
2022/11/27 00:16:07;;;;;;;77.03;28.65;;;;;;;1.98;100.00;100114.00;4237175;33;20457;-71
2022/11/27 00:18:34;;;;;;;73.40;26.33;;;;;;;1.79;100.00;100115.16;4236157;33;20374;-71
2022/11/27 00:21:11;;;;;;;81.87;26.50;;;;;;;1.64;100.00;100108.84;4234847;33;20099;-71
2022/11/27 00:23:38;;;;;;;75.70;30.12;;;;;;;1.75;100.00;100119.13;4236937;33;20461;-71
2022/11/27 00:26:06;;;;;;;84.97;25.48;;;;;;;1.83;100.00;100120.16;4236815;33;20495;-71
2022/11/27 00:28:33;;;;;;;91.68;27.73;;;;;;;1.73;100.00;100113.16;4235392;33;20034;-70
2022/11/27 00:31:02;;;;;;;84.03;28.45;;;;;;;1.51;100.00;100095.25;4235947;33;20136;-69
2022/11/27 00:33:29;;;;;;;82.70;30.40;;;;;;;2.05;100.00;100114.16;4237197;33;20056;-70
2022/11/27 00:35:55;;;;;;;79.62;28.23;;;;;;;2.14;100.00;100113.16;4237271;33;20068;-70
2022/11/27 00:38:22;;;;;;;78.68;27.92;;;;;;;2.22;100.00;100116.78;4234875;33;20054;-69
2022/11/27 00:40:48;;;;;;;76.55;28.58;;;;;;;1.79;100.00;100115.16;4236008;33;21051;-70
2022/11/27 00:43:15;;;;;;;93.68;32.03;;;;;;;1.87;100.00;100095.75;4237829;33;20076;-71
2022/11/27 00:45:42;;;;;;;74.97;26.65;;;;;;;1.73;100.00;100129.09;4236917;33;20046;-71
2022/11/27 00:48:08;;;;;;;84.93;28.05;;;;;;;1.84;100.00;100132.44;4270142;33;20941;-70
2022/11/27 00:50:34;;;;;;;82.72;25.55;;;;;;;1.73;100.00;100105.19;4270882;33;20041;-69
2022/11/27 00:53:01;;;;;;;85.50;28.75;;;;;;;1.79;100.00;100096.56;4246638;33;20062;-70
2022/11/27 00:55:27;;;;;;;81.53;28.62;;;;;;;1.94;100.00;100130.44;4251515;33;20060;-69
2022/11/27 00:57:54;;;;;;;89.85;29.02;;;;;;;1.63;100.00;100078.00;4251040;33;20060;-71
2022/11/27 03:01:22;;;;;;;84.28;29.35;;;;;;;2.34;100.00;100155.31;4653706;28;20038;-70
2022/11/27 03:03:55;;;;;;;86.30;27.62;;;;;;;2.39;100.00;100152.16;4270906;33;20054;-71
2022/11/27 03:06:28;;;;;;;79.87;29.37;;;;;;;2.34;100.00;100147.34;4269704;33;20080;-70
2022/11/27 03:09:16;;;;;;;72.18;28.25;;;;;;;2.31;100.00;100142.34;4270333;33;20126;-70
2022/11/27 03:11:43;;;;;;;76.78;27.35;;;;;;;2.29;100.00;100153.16;4251716;33;20030;-69
2022/11/27 03:14:12;;;;;;;81.00;29.55;;;;;;;2.24;100.00;100159.97;4252650;33;20046;-71
2022/11/27 03:17:11;;;;;;;80.38;28.70;;;;;;;2.17;100.00;100160.66;4254444;33;20369;-70
2022/11/27 03:19:51;;;;;;;74.65;27.27;;;;;;;2.12;100.00;100152.34;4236895;33;20077;-70
2022/11/27 03:22:17;;;;;;;80.15;26.50;;;;;;;1.97;100.00;100148.69;4239690;33;20081;-70
2022/11/27 03:24:44;;;;;;;79.45;29.17;;;;;;;2.00;100.00;100137.75;4240289;33;20074;-70
2022/11/27 03:27:16;;;;;;;73.87;26.83;;;;;;;1.96;100.00;100152.34;4239025;33;20038;-69
2022/11/27 03:29:53;;;;;;;;;;;;;;;2.21;100.00;100147.03;4253680;33;20054;-71
2022/11/27 03:32:19;;;;;;;77.40;24.35;;;;;;;2.45;100.00;100146.97;4254287;33;19937;-71
2022/11/27 03:34:47;;;;;;;69.28;26.65;;;;;;;2.37;100.00;100160.28;4253753;33;20463;-71
2022/11/27 03:37:14;;;;;;;74.22;25.80;;;;;;;2.33;100.00;100145.66;4251442;33;20039;-71
2022/11/27 03:39:41;;;;;;;78.93;27.75;;;;;;;1.97;100.00;100106.19;4254115;33;20089;-71
2022/11/27 03:42:35;;;;;;;75.25;26.45;;;;;;;2.14;100.00;100147.69;4256707;33;20034;-71
2022/11/27 03:45:13;;;;;;;71.53;26.40;;;;;;;2.02;100.00;100124.28;4265765;33;20038;-71
2022/11/27 03:48:10;;;;;;;70.22;24.23;;;;;;;2.28;100.00;100155.97;4267032;33;20034;-71
2022/11/27 03:51:02;;;;;;;66.47;23.02;;;;;;;2.43;100.00;100154.31;4257656;33;20597;-70
2022/11/27 03:53:49;;;;;;;64.95;25.62;;;;;;;2.47;100.00;100149.47;4280474;33;20451;-71
2022/11/27 03:56:42;;;;;;;66.15;25.52;;;;;;;1.99;100.00;100110.34;4281226;33;20041;-70
2022/11/27 03:59:25;;;;;;;78.43;24.98;;;;;;;2.18;100.00;100145.53;4273339;33;20447;-70
2022/11/27 04:01:51;;;;;;;69.05;26.10;;;;;;;2.36;100.00;100143.53;4279847;33;20426;-70
2022/11/27 04:06:51;;;;;;;73.10;26.85;;;;;;;2.48;100.00;100146.63;4281073;33;20041;-71
2022/11/27 04:09:18;;;;;;;67.05;24.42;;;;;;;2.39;100.00;100102.47;4280601;33;20128;-70
2022/11/27 04:11:45;;;;;;;71.47;26.10;;;;;;;2.51;100.00;100140.16;4278992;33;20037;-71
2022/11/27 04:14:11;;;;;;;57.25;22.37;;;;;;;2.63;100.00;100143.28;4281947;33;20216;-71
2022/11/27 04:16:38;;;;;;;75.30;24.67;;;;;;;2.60;100.00;100138.31;4280406;33;20433;-71
2022/11/27 04:19:04;;;;;;;67.43;23.58;;;;;;;2.40;100.00;100101.47;4281959;33;20420;-71
2022/11/27 04:21:30;;;;;;;67.62;24.15;;;;;;;2.34;100.00;100099.50;4288310;33;20045;-71
2022/11/27 04:23:57;;;;;;;66.60;24.37;;;;;;;2.66;100.00;100137.62;4295221;33;20045;-70
2022/11/27 04:26:23;;;;;;;64.62;24.45;;;;;;;2.65;100.00;100141.28;4267472;33;20071;-70
2022/11/27 04:28:50;;;;;;;59.22;23.50;;;;;;;2.72;100.00;100143.06;4267700;33;20034;-70
2022/11/27 04:31:16;;;;;;;59.25;22.92;;;;;;;2.57;100.00;100133.31;4240364;33;20030;-71
2022/11/27 04:33:42;;;;;;;55.55;22.40;;;;;;;2.41;100.00;100103.16;4238918;33;20035;-71
2022/11/27 04:36:09;;;;;;;75.97;26.17;;;;;;;2.51;100.00;100119.72;4238437;33;20431;-70
2022/11/27 04:38:35;;;;;;;62.33;24.08;;;;;;;2.77;100.00;100144.41;4208829;34;20057;-71
2022/11/27 04:41:02;;;;;;;72.37;25.33;;;;;;;2.78;100.00;100135.44;4211132;34;20074;-71
2022/11/27 04:43:28;;;;;;;71.62;24.73;;;;;;;2.75;100.00;100141.91;4232733;33;20210;-71
2022/11/27 04:45:55;;;;;;;66.70;25.45;;;;;;;2.84;100.00;100140.03;4234952;33;20064;-71
2022/11/27 04:48:21;;;;;;;63.92;24.10;;;;;;;2.83;100.00;100141.06;4237088;33;20060;-71
2022/11/27 04:50:48;;;;;;;61.88;24.48;;;;;;;2.69;100.00;100147.91;4223303;34;20058;-70
2022/11/27 04:53:14;;;;;;;67.93;25.77;;;;;;;2.57;100.00;100133.31;4224272;34;20226;-71
2022/11/27 04:55:40;;;;;;;55.72;23.12;;;;;;;2.33;100.00;100111.97;4224724;34;20051;-71
2022/11/27 04:58:07;;;;;;;73.65;25.25;;;;;;;2.15;100.00;100113.97;4226279;33;20042;-71
2022/11/27 05:00:33;;;;;;;66.80;24.58;;;;;;;2.28;100.00;100150.66;4237090;33;20097;-72
2022/11/27 05:02:59;;;;;;;62.62;24.37;;;;;;;2.13;100.00;100132.75;4248932;33;20073;-70
2022/11/27 05:05:26;;;;;;;62.53;25.08;;;;;;;2.45;100.00;100146.97;4266864;33;20080;-71
2022/11/27 05:07:52;;;;;;;71.85;28.25;;;;;;;2.56;100.00;100137.81;4261539;33;20042;-72
2022/11/27 05:10:19;;;;;;;83.55;27.23;;;;;;;2.64;100.00;100140.44;4261488;33;20077;-72
2022/11/27 05:12:45;;;;;;;69.37;26.37;;;;;;;2.64;100.00;100144.94;4266371;33;20048;-72
2022/11/27 05:15:12;;;;;;;74.00;25.90;;;;;;;2.67;100.00;100144.59;4289131;33;20052;-71
2022/11/27 05:17:38;;;;;;;69.40;25.62;;;;;;;2.42;100.00;100114.59;4295381;33;20071;-71
2022/11/27 05:20:05;;;;;;;78.97;29.30;;;;;;;2.38;100.00;100108.78;4295594;33;20046;-72
2022/11/27 05:22:32;;;;;;;64.97;25.08;;;;;;;2.54;100.00;100140.66;4295120;33;20077;-72
2022/11/27 05:24:58;;;;;;;72.75;23.95;;;;;;;2.42;100.00;100126.03;4265396;33;20050;-71
2022/11/27 05:27:24;;;;;;;61.25;25.40;;;;;;;2.16;100.00;100136.91;4263507;33;20037;-71
2022/11/27 05:29:51;;;;;;;62.47;25.70;;;;;;;2.32;100.00;100136.03;4252419;33;20060;-71
2022/11/27 05:32:17;;;;;;;70.18;26.77;;;;;;;2.27;100.00;100125.09;4252076;33;20072;-71
2022/11/27 05:34:44;;;;;;;67.07;25.67;;;;;;;2.17;100.00;100102.19;4251774;33;20060;-69
2022/11/27 05:37:11;;;;;;;74.07;27.92;;;;;;;2.20;100.00;100126.75;4250398;33;20064;-71
2022/11/27 05:39:45;;;;;;;69.20;27.70;;;;;;;2.17;100.00;100126.09;4252549;33;20044;-71
2022/11/27 05:42:11;;;;;;;77.97;27.83;;;;;;;2.35;100.00;100122.41;4264230;33;20053;-71
2022/11/27 05:44:37;;;;;;;69.32;25.58;;;;;;;2.36;100.00;100124.06;4265748;33;20078;-69
2022/11/27 05:47:04;;;;;;;73.00;28.35;;;;;;;2.42;100.00;100126.03;4259129;33;20035;-71
2022/11/27 05:49:30;;;;;;;85.55;27.75;;;;;;;2.20;100.00;100097.53;4265971;33;20094;-70
2022/11/27 05:51:57;;;;;;;69.25;26.95;;;;;;;2.32;100.00;100130.72;4264143;33;20060;-71
2022/11/27 05:54:23;;;;;;;71.50;24.05;;;;;;;2.38;100.00;100130.06;4265618;33;20442;-72
2022/11/27 05:56:49;;;;;;;84.43;27.25;;;;;;;2.28;100.00;100130.25;4256862;33;20078;-70
2022/11/27 05:59:16;;;;;;;80.32;29.55;;;;;;;2.21;100.00;100125.78;4249849;33;20074;-72
2022/11/27 06:01:43;;;;;;;77.07;28.60;;;;;;;2.37;100.00;100125.72;4240171;33;20086;-72
2022/11/27 06:04:16;;;;;;;66.30;24.08;;;;;;;2.51;100.00;100130.34;4264500;33;20042;-72
2022/11/27 06:06:42;;;;;;;70.90;26.12;;;;;;;2.16;100.00;100087.22;4266197;33;20100;-72
2022/11/27 06:09:09;;;;;;;69.05;26.33;;;;;;;2.34;100.00;100128.72;4264441;33;20153;-70
2022/11/27 06:11:35;;;;;;;65.87;25.60;;;;;;;2.22;100.00;100124.75;4263692;33;20193;-72
2022/11/27 06:14:02;;;;;;;69.85;27.58;;;;;;;2.45;100.00;100120.41;4239270;33;20182;-72
2022/11/27 06:16:28;;;;;;;73.93;26.87;;;;;;;2.60;100.00;100117.03;4248281;33;20490;-72
2022/11/27 06:18:55;;;;;;;74.60;27.70;;;;;;;2.64;100.00;100113.84;4261359;33;20039;-71
2022/11/27 06:21:23;;;;;;;74.45;26.33;;;;;;;2.63;100.00;100111.37;4264991;33;20034;-73
2022/11/27 06:23:54;;;;;;;79.45;26.58;;;;;;;2.61;100.00;100108.88;4226655;34;20187;-73
2022/11/27 06:26:28;;;;;;;74.80;29.08;;;;;;;2.54;100.00;100070.69;4234666;33;20454;-72
2022/11/27 06:28:57;;;;;;;70.28;25.77;;;;;;;2.82;100.00;100095.00;4240779;33;20102;-73
2022/11/27 06:31:26;;;;;;;70.62;25.75;;;;;;;2.52;100.00;100089.47;4238624;33;20405;-73
2022/11/27 06:33:54;;;;;;;88.20;29.58;;;;;;;2.49;100.00;100079.19;4239617;33;20054;-72
2022/11/27 06:36:27;;;;;;;70.47;27.13;;;;;;;2.56;100.00;100094.47;4240006;33;20484;-71
2022/11/27 06:38:53;;;;;;;77.57;27.90;;;;;;;2.67;100.00;100094.09;4240486;33;20064;-72
2022/11/27 06:41:22;;;;;;;69.35;27.87;;;;;;;2.75;100.00;100093.22;4239147;33;20078;-70
2022/11/27 06:43:49;;;;;;;73.85;27.10;;;;;;;2.68;100.00;100077.09;4240179;33;20098;-71
2022/11/27 06:46:23;;;;;;;70.62;25.62;;;;;;;2.86;100.00;100098.97;4233954;33;20051;-70
2022/11/27 06:48:52;;;;;;;60.97;25.37;;;;;;;2.73;100.00;100090.75;4236161;33;20086;-71
2022/11/27 06:51:22;;;;;;;70.45;25.02;;;;;;;2.86;100.00;100096.31;4197252;34;20035;-70
2022/11/27 06:53:49;;;;;;;72.45;25.20;;;;;;;2.88;100.00;100099.62;4183846;34;20107;-70
2022/11/27 06:56:19;;;;;;;68.05;26.45;;;;;;;2.83;100.00;100086.03;4212399;34;20035;-71
2022/11/27 06:58:45;;;;;;;66.32;24.42;;;;;;;2.86;100.00;100096.31;4212107;34;20065;-71
2022/11/27 07:01:15;;;;;;;76.20;27.00;;;;;;;2.70;100.00;100080.44;4207517;34;20200;-70
2022/11/27 07:03:43;;;;;;;67.72;23.48;;;;;;;2.79;100.00;100105.97;4210201;34;20096;-70
2022/11/27 07:06:14;;;;;;;69.22;23.55;;;;;;;2.67;100.00;100107.38;4211746;34;20081;-70
2022/11/27 07:08:41;;;;;;;66.85;23.87;;;;;;;2.93;100.00;100107.09;4211648;34;20043;-70
2022/11/27 07:11:11;;;;;;;58.03;22.58;;;;;;;2.81;100.00;100109.31;4211719;34;20069;-69
2022/11/27 07:13:37;;;;;;;71.20;24.42;;;;;;;2.56;100.00;100111.22;4213636;34;20051;-69
2022/11/27 07:16:06;;;;;;;64.75;25.15;;;;;;;2.77;100.00;100108.00;4212531;34;20580;-69
2022/11/27 07:18:38;;;;;;;66.93;23.40;;;;;;;2.84;100.00;100119.63;4224259;34;20066;-70
2022/11/27 07:21:04;;;;;;;73.70;23.67;;;;;;;2.91;100.00;100131.22;4225666;34;20078;-69
2022/11/27 07:23:31;;;;;;;57.33;22.35;;;;;;;2.70;100.00;100123.81;4223232;34;20064;-69
2022/11/27 07:25:58;;;;;;;61.63;23.10;;;;;;;2.32;100.00;100120.09;4243261;33;20050;-69
2022/11/27 07:28:25;;;;;;;66.70;23.85;;;;;;;2.67;100.00;100123.34;4265643;33;20045;-69
2022/11/27 07:30:55;;;;;;;66.90;24.02;;;;;;;2.78;100.00;100107.00;4300023;33;20067;-70
2022/11/27 07:33:23;;;;;;;71.17;27.70;;;;;;;2.90;100.00;100129.56;4281707;33;20045;-69
2022/11/27 07:35:57;;;;;;;78.55;24.52;;;;;;;2.77;100.00;100129.28;4278386;33;20073;-70
2022/11/27 07:38:24;;;;;;;64.43;23.42;;;;;;;2.71;100.00;100124.63;4282073;33;20063;-70
2022/11/27 07:40:50;;;;;;;75.68;25.85;;;;;;;2.90;100.00;100134.88;4275939;33;20522;-70
2022/11/27 07:43:17;;;;;;;70.12;25.35;;;;;;;2.66;100.00;100137.62;4278814;33;20045;-70
2022/11/27 07:45:43;;;;;;;72.18;24.95;;;;;;;2.61;100.00;100098.25;4287252;33;20083;-71
2022/11/27 07:48:10;;;;;;;71.32;23.55;;;;;;;2.87;100.00;100113.94;4275836;33;20081;-71
2022/11/27 07:50:38;;;;;;;70.07;26.95;;;;;;;2.98;100.00;100128.69;4291303;33;20055;-71
2022/11/27 07:53:05;;;;;;;68.70;26.85;;;;;;;3.14;100.00;100133.09;4280781;33;20060;-70
2022/11/27 07:55:31;;;;;;;72.30;26.15;;;;;;;3.36;100.00;100118.16;4279747;33;20049;-71
2022/11/27 07:57:57;;;;;;;80.35;29.00;;;;;;;3.45;100.00;100126.94;4281828;33;20070;-71
2022/11/27 08:00:24;;;;;;;66.45;25.00;;;;;;;3.25;100.00;100127.38;4281773;33;20067;-71
2022/11/27 08:02:51;;;;;;;70.62;25.27;;;;;;;3.40;100.00;100130.12;4273413;33;20041;-72
2022/11/27 08:05:17;;;;;;;64.57;24.35;;;;;;;3.43;100.00;100118.28;4288662;33;20075;-71
2022/11/27 08:07:43;;;;;;;61.78;23.42;;;;;;;3.11;100.00;100109.50;4294542;33;20108;-71
2022/11/27 08:10:10;;;;;;;66.15;23.95;;;;;;;3.39;100.00;100115.16;4274833;33;20045;-71
2022/11/27 08:12:36;;;;;;;64.22;23.27;;;;;;;3.21;100.00;100125.28;4250203;33;20076;-74
2022/11/27 08:15:04;;;;;;;69.78;24.15;;;;;;;3.30;100.00;100096.75;4250352;33;20190;-74
2022/11/27 08:17:31;;;;;;;60.53;22.25;;;;;;;3.48;100.00;100110.63;4247799;33;20050;-74
2022/11/27 08:19:57;;;;;;;65.40;23.30;;;;;;;3.17;100.00;100076.84;4246903;33;20437;-74
2022/11/27 08:22:24;;;;;;;58.10;23.05;;;;;;;3.33;100.00;100125.69;4249418;33;20054;-73
2022/11/27 08:24:50;;;;;;;60.00;22.25;;;;;;;3.33;100.00;100123.03;4263577;33;20099;-74
2022/11/27 08:27:17;;;;;;;58.65;22.10;;;;;;;3.18;100.00;100126.44;4263280;33;20072;-73
2022/11/27 08:29:43;;;;;;;58.80;22.92;;;;;;;3.44;100.00;100126.09;4262914;33;20430;-74
2022/11/27 08:32:10;;;;;;;60.25;21.87;;;;;;;3.44;100.00;100120.78;4263974;33;20068;-73
2022/11/27 08:34:43;;;;;;;46.28;19.10;;;;;;;3.60;100.00;100117.19;4261145;33;20034;-73
2022/11/27 08:37:10;;;;;;;56.42;20.83;;;;;;;2.76;100.00;100087.75;4264540;33;20498;-74
2022/11/27 08:39:36;;;;;;;51.40;19.75;;;;;;;3.14;100.00;100125.13;4265194;33;20042;-74
2022/11/27 08:42:02;;;;;;;61.40;21.48;;;;;;;3.17;100.00;100127.44;4262771;33;20399;-74
2022/11/27 08:44:29;;;;;;;52.60;21.70;;;;;;;3.30;100.00;100128.69;4289772;33;20405;-73
2022/11/27 08:46:56;;;;;;;59.28;23.48;;;;;;;3.32;100.00;100124.03;4294957;33;20065;-74
2022/11/27 08:49:22;;;;;;;64.57;21.85;;;;;;;3.48;100.00;100131.06;4265767;33;20033;-74
2022/11/27 08:51:49;;;;;;;61.45;22.87;;;;;;;3.37;100.00;100127.00;4264876;33;20080;-74
2022/11/27 08:54:15;;;;;;;54.50;23.27;;;;;;;3.66;100.00;100128.97;4264466;33;20071;-75
2022/11/27 08:56:42;;;;;;;63.05;23.33;;;;;;;3.86;100.00;100133.81;4265794;33;20049;-72
2022/11/27 08:59:08;;;;;;;55.92;20.25;;;;;;;3.68;100.00;100110.16;4265131;33;20042;-73
2022/11/27 09:01:35;;;;;;;58.55;20.20;;;;;;;3.47;100.00;100122.28;4265330;33;20441;-73
2022/11/27 09:04:01;;;;;;;58.67;23.67;;;;;;;3.47;100.00;100130.25;4266640;33;20106;-74
2022/11/27 09:06:31;;;;;;;63.20;22.08;;;;;;;3.62;100.00;100111.66;4263149;33;20052;-74
2022/11/27 09:08:59;;;;;;;55.25;23.12;;;;;;;3.66;100.00;100123.62;4266935;33;20411;-74
2022/11/27 09:11:29;;;;;;;52.47;21.98;;;;;;;3.68;100.00;100115.47;4265064;33;20059;-74
2022/11/27 09:14:05;;;;;;;68.45;25.62;;;;;;;4.08;100.00;100126.81;4275587;33;20084;-76
2022/11/27 09:16:32;;;;;;;56.42;24.48;;;;;;;4.07;100.00;100130.47;4271415;33;20049;-74
2022/11/27 09:18:58;;;;;;;63.15;25.85;;;;;;;4.17;100.00;100125.72;4273297;33;20090;-74
2022/11/27 09:21:31;;;;;;;69.43;25.00;;;;;;;4.22;100.00;100134.00;4276558;33;20042;-74
2022/11/27 09:23:59;;;;;;;64.40;25.70;;;;;;;4.25;100.00;100138.97;4264619;33;20030;-74
2022/11/27 09:26:27;;;;;;;62.20;25.58;;;;;;;4.02;100.00;100111.53;4264809;33;20049;-75
2022/11/27 09:28:56;;;;;;;60.25;25.90;;;;;;;4.16;100.00;100140.91;4287764;33;20962;-75
2022/11/27 09:31:22;;;;;;;62.78;25.83;;;;;;;4.13;100.00;100143.06;4289701;33;20084;-74
2022/11/27 09:33:49;;;;;;;74.50;24.25;;;;;;;4.04;100.00;100138.81;4289451;33;20037;-74
2022/11/27 09:36:22;;;;;;;63.47;26.00;;;;;;;3.90;100.00;100108.47;4291783;33;20041;-74
2022/11/27 09:38:48;;;;;;;;;;;;;;;4.21;100.00;100136.84;4292323;33;20489;-73
2022/11/27 09:41:32;;;;;;;71.40;26.73;;;;;;;4.32;100.00;100145.25;4291850;33;20327;-74
2022/11/27 09:44:05;;;;;;;63.70;25.40;;;;;;;4.15;100.00;100149.06;4261350;33;20090;-74
2022/11/27 09:46:36;;;;;;;61.75;25.58;;;;;;;4.03;100.00;100115.84;4274108;33;20062;-73
2022/11/27 09:49:07;;;;;;;70.97;28.85;;;;;;;4.24;100.00;100129.31;4269104;33;20050;-74
2022/11/27 09:51:43;;;;;;;66.82;24.67;;;;;;;4.24;100.00;100137.31;4262860;33;20054;-73
2022/11/27 09:54:17;;;;;;;62.05;27.58;;;;;;;4.21;100.00;100137.66;4261971;33;20118;-73
2022/11/27 09:56:48;;;;;;;56.58;22.75;;;;;;;3.99;100.00;100113.56;4236904;33;20046;-73
2022/11/27 09:59:18;;;;;;;58.25;23.77;;;;;;;4.13;100.00;100135.94;4233841;33;20442;-73
2022/11/27 10:01:45;;;;;;;67.55;25.55;;;;;;;4.05;100.00;100132.50;4229213;33;20094;-75
2022/11/27 10:04:15;;;;;;;59.80;22.80;;;;;;;3.74;100.00;100106.78;4231299;33;20082;-73
2022/11/27 10:07:01;;;;;;;62.62;24.37;;;;;;;3.91;100.00;100134.94;4232013;33;20394;-71
2022/11/27 10:09:48;;;;;;;59.85;23.98;;;;;;;3.76;100.00;100096.75;4232704;33;20030;-70
2022/11/27 10:12:22;;;;;;;53.75;21.20;;;;;;;4.27;100.00;100136.13;4234644;33;20039;-71
2022/11/27 10:15:16;;;;;;;59.35;22.35;;;;;;;3.89;100.00;100112.97;4233304;33;20077;-71
2022/11/27 10:18:00;;;;;;;54.75;21.42;;;;;;;3.91;100.00;100126.94;4231178;33;20038;-71
2022/11/27 10:20:50;;;;;;;61.22;23.48;;;;;;;3.80;100.00;100112.22;4233388;33;20093;-72
2022/11/27 10:23:41;;;;;;;59.88;21.83;;;;;;;3.69;100.00;100127.78;4228220;33;20062;-71
2022/11/27 10:26:19;;;;;;;59.07;22.80;;;;;;;3.82;100.00;100125.34;4236996;33;20050;-70
2022/11/27 10:28:53;;;;;;;54.83;22.37;;;;;;;3.84;100.00;100115.34;4259289;33;20105;-71
2022/11/27 10:31:34;;;;;;;55.03;23.00;;;;;;;4.03;100.00;100113.19;4266441;33;20030;-72
2022/11/27 10:34:37;;;;;;;66.68;27.00;;;;;;;4.15;100.00;100106.44;4260892;33;20077;-71
2022/11/27 10:37:12;;;;;;;;;;;;;;;4.42;100.00;100106.81;4248841;33;20079;-71
2022/11/27 10:39:45;;;;;;;60.80;22.10;;;;;;;4.30;100.00;100104.59;4259809;33;19957;-71
2022/11/27 10:42:19;;;;;;;60.97;23.70;;;;;;;4.40;100.00;100092.81;4262169;33;20041;-71
2022/11/27 10:45:20;;;;;;;48.55;19.98;;;;;;;4.16;100.00;100097.41;4265631;33;20058;-71
2022/11/27 10:47:47;;;;;;;52.38;20.58;;;;;;;4.15;100.00;100101.09;4235063;33;20463;-71
2022/11/27 10:50:15;;;;;;;53.85;20.62;;;;;;;3.86;100.00;100086.69;4265034;33;20042;-71
2022/11/27 10:52:58;;;;;;;56.95;19.90;;;;;;;4.32;100.00;100089.25;4267914;33;20026;-71
2022/11/27 10:55:56;;;;;;;47.83;19.50;;;;;;;4.10;100.00;100082.13;4254527;33;20054;-70
2022/11/27 10:58:34;;;;;;;50.40;20.88;;;;;;;4.03;100.00;100086.53;4251816;33;20069;-69
2022/11/27 11:01:10;;;;;;;47.62;19.73;;;;;;;4.06;100.00;100054.19;4253457;33;20387;-70
2022/11/27 11:03:36;;;;;;;53.63;21.83;;;;;;;3.96;100.00;100076.59;4252673;33;20126;-70
2022/11/27 11:06:07;;;;;;;51.75;19.60;;;;;;;4.00;100.00;100045.94;4252766;33;20419;-70
2022/11/27 11:08:35;;;;;;;50.08;19.73;;;;;;;4.33;100.00;100072.22;4252999;33;20071;-71
2022/11/27 11:11:05;;;;;;;45.67;20.00;;;;;;;4.26;100.00;100070.47;4253658;33;20042;-72
2022/11/27 11:13:40;;;;;;;55.63;19.87;;;;;;;4.39;100.00;100075.16;4250447;33;20042;-71
2022/11/27 11:16:10;;;;;;;46.35;19.67;;;;;;;4.06;100.00;100040.87;4252080;33;20046;-71
2022/11/27 11:18:48;;;;;;;47.62;18.95;;;;;;;4.39;100.00;100069.81;4254935;33;20053;-70
2022/11/27 11:21:26;;;;;;;44.08;18.65;;;;;;;4.29;100.00;100070.09;4254149;33;20062;-72
2022/11/27 11:24:01;;;;;;;50.65;20.27;;;;;;;4.31;100.00;100074.25;4253182;33;20432;-69
2022/11/27 11:26:31;;;;;;;55.53;20.40;;;;;;;4.49;100.00;100065.88;4260615;33;20509;-70
2022/11/27 11:29:01;;;;;;;46.30;19.40;;;;;;;4.42;100.00;100061.47;4265370;33;20042;-71
2022/11/27 11:31:33;;;;;;;44.08;18.20;;;;;;;4.62;100.00;100057.22;4265534;33;20040;-71
2022/11/27 11:34:04;;;;;;;51.22;21.52;;;;;;;4.40;100.00;100044.84;4240626;33;20026;-70
2022/11/27 11:36:31;;;;;;;46.80;20.37;;;;;;;4.89;100.00;100065.56;4243220;33;20035;-70
2022/11/27 11:38:57;;;;;;;47.35;19.65;;;;;;;4.96;100.00;100071.78;4237235;33;20039;-70
2022/11/27 11:41:34;;;;;;;49.88;20.02;;;;;;;5.06;100.00;100066.19;4240208;33;20063;-72
2022/11/27 11:44:01;;;;;;;43.03;19.60;;;;;;;4.55;100.00;100038.47;4261108;33;20115;-70
2022/11/27 11:46:32;;;;;;;42.95;19.17;;;;;;;4.92;100.00;100065.19;4260904;33;20042;-71
2022/11/27 11:49:01;;;;;;;45.53;18.33;;;;;;;5.19;100.00;100070.84;4262193;33;20030;-71
2022/11/27 11:51:52;;;;;;;41.05;18.35;;;;;;;5.02;100.00;100063.03;4260218;33;20044;-70
2022/11/27 11:54:24;;;;;;;40.88;17.73;;;;;;;4.68;100.00;100064.50;4251364;33;20022;-71
2022/11/27 11:56:51;;;;;;;44.55;18.23;;;;;;;4.73;100.00;100061.28;4247339;33;20081;-71
2022/11/27 11:59:44;;;;;;;46.97;18.40;;;;;;;4.50;100.00;100021.34;4252646;33;20026;-70
2022/11/27 12:02:51;;;;;;;38.47;17.30;;;;;;;4.72;100.00;100043.59;4372517;28;20166;-70
2022/11/27 12:06:00;;;;;;;44.70;17.75;;;;;;;5.11;100.00;100031.72;4245165;33;20038;-70
2022/11/27 12:08:46;;;;;;;34.25;15.75;;;;;;;5.16;100.00;100052.53;4249768;33;20064;-70
2022/11/27 12:11:17;;;;;;;32.88;14.87;;;;;;;5.12;100.00;100053.91;4252043;33;20068;-70
2022/11/27 12:14:17;;;;;;;42.80;17.23;;;;;;;4.85;100.00;100051.78;4249546;33;20215;-71
2022/11/27 12:16:49;;;;;;;40.85;17.10;;;;;;;5.01;100.00;100048.06;4250552;33;20033;-70
2022/11/27 12:19:19;;;;;;;;;;;;;;;5.09;100.00;100045.28;4251305;33;20467;-72
2022/11/27 12:22:09;;;;;;;33.22;15.23;;;;;;;5.22;100.00;100041.91;4251350;33;20245;-71
2022/11/27 12:25:14;;;;;;;39.88;17.00;;;;;;;5.17;100.00;100009.63;4252155;33;20042;-71
2022/11/27 12:27:52;;;;;;;36.08;15.90;;;;;;;5.39;100.00;100029.16;4251722;33;20049;-70
2022/11/27 12:30:27;;;;;;;41.58;18.15;;;;;;;5.48;100.00;100026.34;4254997;33;20057;-71
2022/11/27 12:33:14;;;;;;;44.13;16.60;;;;;;;5.35;100.00;100001.16;4254319;33;20034;-70
2022/11/27 12:35:56;;;;;;;35.70;15.68;;;;;;;5.53;100.00;100023.91;4252626;33;20042;-71
2022/11/27 12:38:31;;;;;;;31.40;14.85;;;;;;;5.25;100.00;100035.38;4254408;33;20038;-70
2022/11/27 12:41:09;;;;;;;38.65;15.10;;;;;;;4.82;100.00;99995.25;4253405;33;20085;-72
2022/11/27 12:43:49;;;;;;;31.92;14.68;;;;;;;5.16;100.00;100017.81;4250901;33;20296;-71
2022/11/27 12:46:25;;;;;;;37.05;16.60;;;;;;;5.24;100.00;100031.03;4208963;34;20055;-72
2022/11/27 12:49:04;;;;;;;35.75;15.95;;;;;;;5.41;100.00;100027.09;4195148;34;20043;-71
2022/11/27 12:51:36;;;;;;;30.30;14.82;;;;;;;5.50;100.00;100030.44;4207643;34;20085;-71
2022/11/27 12:54:10;;;;;;;;;;;;;;;5.19;100.00;99996.09;4195706;34;20488;-72
2022/11/27 12:56:41;;;;;;;31.00;13.40;;;;;;;5.75;100.00;100030.87;4196129;34;19954;-71
2022/11/27 12:59:15;;;;;;;33.00;16.10;;;;;;;5.53;100.00;100013.22;4215357;34;20593;-71
2022/11/27 13:01:46;;;;;;;34.33;15.98;;;;;;;5.64;100.00;100036.75;4211028;34;20054;-71
2022/11/27 13:04:25;;;;;;;35.72;14.68;;;;;;;5.58;100.00;100043.66;4210742;34;20039;-71
2022/11/27 13:07:06;;;;;;;36.53;14.32;;;;;;;5.08;100.00;100032.09;4209631;34;20238;-70
2022/11/27 13:10:08;;;;;;;42.40;17.33;;;;;;;4.78;100.00;100010.03;4204741;34;20448;-73
2022/11/27 13:12:42;;;;;;;32.63;15.40;;;;;;;5.27;100.00;100030.66;4209552;34;20302;-72
2022/11/27 13:15:38;;;;;;;38.55;16.27;;;;;;;5.56;100.00;100034.22;4206765;34;20082;-72
2022/11/27 13:18:29;;;;;;;41.00;17.20;;;;;;;5.74;100.00;100026.53;4223326;33;20042;-72
2022/11/27 13:21:08;;;;;;;35.28;16.70;;;;;;;5.78;100.00;100038.50;4240555;33;20097;-73
2022/11/27 13:23:34;;;;;;;35.03;15.57;;;;;;;5.53;100.00;100010.56;4245141;33;20348;-71
2022/11/27 13:26:05;;;;;;;43.25;18.25;;;;;;;5.63;100.00;100040.44;4242490;33;20038;-71
2022/11/27 13:28:41;;;;;;;37.75;16.23;;;;;;;5.41;100.00;100036.97;4240653;33;20656;-72
2022/11/27 13:31:36;;;;;;;40.30;17.65;;;;;;;5.63;100.00;100032.41;4245134;33;20197;-72
2022/11/27 13:34:09;;;;;;;39.38;18.20;;;;;;;5.75;100.00;100028.19;4243469;33;20068;-73
2022/11/27 13:36:38;;;;;;;29.98;15.02;;;;;;;5.55;100.00;100027.22;4240535;33;20437;-71